• Join FlightAware (Why Join?)
  • Login
  • US Flag 
01:59AM EDT


 

Airport Tracker/Info


-or-


 

Live Flight TrackerFlight Track Log ✈ CTL21 ✈ 10-Jun-2013 ✈ KAZO - KBKL

Flight Track Log - Related Links

Times and Time Zones

All times are in EDT time to prevent confusion due to time zone crossing. See the CTL21 flight status page for this flight to view local times or setup timezone preferences in your user account.

Time Position Orientation Groundspeed Altitude Reporting Facility
EDT Latitude Longitude Course Direction KTS MPH feet Rate Location/Type
05:13PM 42.2056 -85.4003 118° Southeast 154 177 4,000  Level Chicago Center
05:14PM 42.1814 -85.3397 118° Southeast 153 176 4,700 480 Climbing Chicago Center
05:15PM 42.1617 -85.2858 116° Southeast 158 182 5,100 180 Climbing Chicago Center
05:16PM 42.0967 -85.2312 120° Southeast  Level FlightAware Approximate
05:16PM 42.1519 -85.2203 101° East 171 197 5,100  Level Chicago Center
05:17PM 42.0748 -85.1774 117° Southeast  Level FlightAware Approximate
05:17PM 42.1422 -85.1517 101° East 184 212 5,000  Level Chicago Center
05:18PM 42.1278 -85.0856 106° East 184 212 5,000  Level Chicago Center
05:19PM 42.1131 -85.0206 107° East 182 209 5,000  Level Chicago Center
05:20PM 42.0972 -84.9397 105° East 185 213 5,000  Level Chicago Center
05:21PM 42.0819 -84.8756 108° East 182 209 5,000  Level Chicago Center
05:22PM 42.0694 -84.8106 105° East 179 206 5,000  Level Chicago Center
05:23PM 42.0575 -84.7475 104° East 175 201 5,100  Climbing Chicago Center
05:24PM 42.0417 -84.6847 109° East 176 203 5,100  Level Chicago Center
05:25PM 42.0239 -84.6228 111° Southeast 176 203 5,100 -60 Level Chicago Center
05:26PM 42.0019 -84.5464 111° Southeast 179 206 5,000  Descending Chicago Center
05:27PM 41.9839 -84.4839 111° Southeast 179 206 5,100  Climbing Chicago Center
05:28PM 41.9633 -84.4203 113° Southeast 181 208 5,000  Descending Chicago Center
05:29PM 41.9436 -84.3578 113° Southeast 183 211 5,100  Climbing Chicago Center
05:30PM 41.9247 -84.2958 112° Southeast 182 209 5,000 -60 Descending Chicago Center
05:31PM 41.9075 -84.2322 110° East 182 209 5,000  Level Chicago Center
05:32PM 41.8864 -84.1550 110° East 183 211 5,100  Climbing Chicago Center
05:34PM 41.8669 -84.0906 112° Southeast 184 212 5,100 -60 Level Chicago Center
05:36PM 41.8301 -83.9762 113° Southeast  Level FlightAware Approximate
05:43PM 41.7070 -83.5691 111° Southeast  Level FlightAware Approximate
05:44PM 41.6899 -83.5107 111° Southeast  Level FlightAware Approximate
05:45PM 41.6729 -83.4523 111° Southeast  Level FlightAware Approximate
05:46PM 41.6559 -83.3940 111° Southeast  Level FlightAware Approximate
05:47PM 41.6388 -83.3356 111° Southeast  Level FlightAware Approximate
05:48PM 41.6217 -83.2774 111° Southeast  Level FlightAware Approximate
05:48PM 41.6692 -83.1211 112° Southeast 187 215 5,000  Level Cleveland Center
05:49PM 41.6045 -83.2191 111° Southeast  Level FlightAware Approximate
05:49PM 41.6642 -83.0625 96° East 185 213 5,100  Level Cleveland Center
05:50PM 41.5874 -83.1609 112° Southeast  Level FlightAware Approximate
05:50PM 41.6575 -82.9817 96° East 187 215 5,100  Level Cleveland Center
05:51PM 41.5702 -83.1027 112° Southeast  Level FlightAware Approximate
05:51PM 41.6486 -82.9119 100° East 186 214 5,100  Level Cleveland Center
05:52PM 41.5529 -83.0445 112° Southeast  Level FlightAware Approximate
05:52PM 41.6417 -82.8367 97° East 187 215 5,000  Level Cleveland Center
05:53PM 41.5357 -82.9864 112° Southeast  Level FlightAware Approximate
05:53PM 41.6328 -82.7694 100° East 189 217 5,100  Level Cleveland Center
05:54PM 41.5184 -82.9283 112° Southeast  Level FlightAware Approximate
05:55PM 41.6207 -82.6925 102° East  Level FlightAware Approximate
05:56PM 41.6208 -82.6136 102° East 191 220 5,000  Level Cleveland Center
05:57PM 41.6117 -82.5439 100° East 194 223 4,800 -300 Descending Cleveland Center
05:58PM 41.6047 -82.4686 97° East 202 232 4,400 -420 Descending Cleveland Center
05:59PM 41.5975 -82.3964 98° East 202 232 4,000 -360 Descending Cleveland Center
06:00PM 41.5925 -82.3211 95° East 202 232 3,700 -360 Descending Cleveland Center
06:01PM 41.5831 -82.2431 99° East 205 236 3,300 -420 Descending Cleveland Center
06:02PM 41.5739 -82.1681 99° East 202 232 2,900 -480 Descending Cleveland Center
06:02PM 41.5683 -82.1097 97° East 197 227 2,500 -540 Descending Cleveland Center
06:03PM 41.5608 -82.0428 98° East 196 226 2,000 -420 Descending Cleveland Center
06:04PM 41.5514 -81.9678 100° East 189 217 1,700 -180 Descending Cleveland Center
06:05PM 41.5458 -81.9039 97° East 174 200 1,700  Level Cleveland Center
06:06PM 41.5381 -81.8453 100° East 173 199 1,700  Level Cleveland Center
06:07PM 41.5306 -81.7758 98° East 175 201 1,700  Level Cleveland Center
06:08PM 41.5311 -81.7203 89° East 168 193 1,700 -240 Level Cleveland Center
06:09PM 41.5358 -81.6650 83° East 142 163 1,300 -420 Descending Cleveland Center
06:11PM 41.5167 -81.6667 97° East  Level FlightAware Approximate
06:18PM 41.5175 -81.6833 97° East  Level Estimated